Emmanuel — WDE6384 — position and weather

sailwx.info

Track history (hours):
 
Tides and Currents Weather Stations Pressure Air Temp Water Temp Dewpoint Dewpoint Depression Visibility Wind Speed Wind Dir Waves Ship Positions

Emmanuel

Owner: Marquette Transportation Company Gulf-Inland, LLC, Jefferson, LA. More information available from US FCC via Universal Licensing System and Coast Guard Vessel Documentation Center.

Last reported at 2017-Sep-19 14:37 UTC. Time now 2017-Sep-20 23:36 UTC.
Position N 29°50' W 091°60'.

Length 205 m; draft 2.9 m.

Type: Towing. MMSI: 367379540.

Date/timePositionNaut miles runAvg speedWind from/ knotsBaromVisibWave heightAir tempDewpointWater temp
2017-Sep-19 14:37N 29°50' W 091°60'1 4.6
2017-Sep-19 14:30N 29°50' W 092°00'3 5.4
2017-Sep-19 14:00N 29°49' W 092°03'3 5.5
2017-Sep-19 13:30N 29°48' W 092°06'3 5.5
2017-Sep-19 13:00N 29°47' W 092°09'2 4.8
2017-Sep-19 12:30N 29°47' W 092°12'3 5.0
2017-Sep-19 12:00N 29°48' W 092°15'3 5.3
2017-Sep-19 11:25N 29°50' W 092°18'2 4.0
2017-Sep-19 10:55N 29°50' W 092°20'39 3.6
2017-Sep-18 23:58N 29°56' W 093°04'2 5.0
2017-Sep-18 23:30N 29°56' W 093°07'3 5.0
2017-Sep-18 23:00N 29°56' W 093°10'3 5.2
2017-Sep-18 22:30N 29°58' W 093°12'2 4.1
2017-Sep-18 22:00N 29°60' W 093°13'0 0.0
2017-Sep-18 21:30N 29°60' W 093°13'1 1.9
2017-Sep-18 21:00N 30°01' W 093°14'2 4.5
2017-Sep-18 20:30N 30°02' W 093°16'2 4.1
2017-Sep-18 20:00N 30°04' W 093°16'2 3.8
2017-Sep-18 19:30N 30°06' W 093°18'1 1.8
2017-Sep-18 19:00N 30°06' W 093°19'0 0.0
2017-Sep-18 18:30N 30°06' W 093°19'0 0.1
2017-Sep-18 18:00N 30°06' W 093°19'3 5.1
2017-Sep-18 17:30N 30°04' W 093°21'2 4.7
2017-Sep-18 17:00N 30°04' W 093°23'3 5.9
2017-Sep-18 16:30N 30°04' W 093°27'3 6.0
2017-Sep-18 16:00N 30°04' W 093°30'11 0.9
2017-Sep-18 03:10N 30°03' W 093°43'1 6.8
2017-Sep-18 03:00N 30°03' W 093°42'4 6.7
2017-Sep-18 02:28N 30°04' W 093°38'3 6.0
2017-Sep-18 02:00N 30°04' W 093°35'3 5.8
2017-Sep-18 01:30N 30°04' W 093°31'3 5.7
2017-Sep-18 01:00N 30°04' W 093°28'3 5.5
2017-Sep-18 00:30N 30°04' W 093°25'3 5.4
2017-Sep-18 00:00N 30°04' W 093°22'0 0.5
2017-Sep-17 23:30N 30°04' W 093°21'2 4.2
2017-Sep-17 23:00N 30°05' W 093°20'2 3.0
2017-Sep-17 22:30N 30°06' W 093°18'2 3.4
2017-Sep-17 22:00N 30°05' W 093°17'0 1.0
2017-Sep-17 21:30N 30°04' W 093°16'0 0.1
2017-Sep-17 21:00N 30°04' W 093°16'1 1.5
2017-Sep-17 20:30N 30°04' W 093°16'0 0.1
2017-Sep-17 20:00N 30°04' W 093°16'0 0.1
2017-Sep-17 19:30N 30°04' W 093°16'0 0.1
2017-Sep-17 19:00N 30°04' W 093°16'0 0.0
2017-Sep-17 18:30N 30°04' W 093°16'0 0.2
2017-Sep-17 18:00N 30°04' W 093°16'0 0.9
2017-Sep-17 17:30N 30°03' W 093°16'1 2.8
2017-Sep-17 17:00N 30°02' W 093°15'0 0.7
2017-Sep-17 16:30N 30°02' W 093°15'0 0.0
2017-Sep-17 16:00N 30°02' W 093°15'1 1.6
2017-Sep-17 15:30N 30°01' W 093°14'2 3.1
2017-Sep-17 15:00N 29°60' W 093°13'1 2.7
2017-Sep-17 14:30N 29°59' W 093°12'1 1.4
2017-Sep-17 14:00N 29°58' W 093°12'1 1.5
2017-Sep-17 13:30N 29°58' W 093°11'1 1.3
2017-Sep-17 13:00N 29°57' W 093°11'0 0.4
2017-Sep-17 12:30N 29°57' W 093°10'2 3.2
2017-Sep-17 12:00N 29°56' W 093°09'2 4.1
2017-Sep-17 11:29N 29°56' W 093°06'40 3.6
2017-Sep-17 00:38N 29°51' W 092°21'1 3.8
2017-Sep-17 00:25N 29°51' W 092°20'2 3.9
2017-Sep-16 23:59N 29°50' W 092°18'1 2.9
2017-Sep-16 23:30N 29°49' W 092°17'2 3.2
2017-Sep-16 23:00N 29°48' W 092°16'2 3.5
2017-Sep-16 22:30N 29°48' W 092°14'2 3.1
2017-Sep-16 22:00N 29°47' W 092°12'2 3.8
2017-Sep-16 21:30N 29°47' W 092°10'2 3.9
2017-Sep-16 21:00N 29°47' W 092°08'2 3.8
2017-Sep-16 20:30N 29°48' W 092°06'2 3.7
2017-Sep-16 20:00N 29°48' W 092°04'2 4.0
2017-Sep-16 19:30N 29°49' W 092°02'57 3.1
2017-Sep-16 01:22N 29°36' W 090°58'2 4.0
2017-Sep-16 00:59N 29°35' W 090°57'2 3.7
2017-Sep-16 00:29N 29°34' W 090°56'2 4.0
2017-Sep-16 00:00N 29°33' W 090°54'2 3.8
2017-Sep-15 23:30N 29°32' W 090°52'2 3.9
2017-Sep-15 23:00N 29°32' W 090°49'2 3.9
2017-Sep-15 22:30N 29°32' W 090°47'2 3.3
2017-Sep-15 22:00N 29°33' W 090°45'2 3.3
2017-Sep-15 21:30N 29°34' W 090°44'1 1.9
2017-Sep-15 21:00N 29°35' W 090°43'2 3.1
2017-Sep-15 20:30N 29°36' W 090°43'1 2.5
2017-Sep-15 20:00N 29°36' W 090°41'1 2.3
2017-Sep-15 19:30N 29°36' W 090°40'1 2.3
2017-Sep-15 19:00N 29°36' W 090°39'2 3.7
2017-Sep-15 18:30N 29°35' W 090°37'2 3.9
2017-Sep-15 18:00N 29°34' W 090°35'2 3.3
2017-Sep-15 17:30N 29°34' W 090°33'2 3.7
2017-Sep-15 17:00N 29°34' W 090°31'2 3.8
2017-Sep-15 16:29N 29°34' W 090°29'  
2017-Sep-11 13:02N 29°50' W 091°59'0 6.4
2017-Sep-11 12:57N 29°50' W 091°59'3 6.0
2017-Sep-11 12:29N 29°49' W 092°02'3 6.4
2017-Sep-11 12:00N 29°48' W 092°06'3 6.6
2017-Sep-11 11:29N 29°47' W 092°09'3 5.2
2017-Sep-11 11:00N 29°47' W 092°12'2 3.5
2017-Sep-11 10:30N 29°48' W 092°14'3 5.6
2017-Sep-11 09:54N 29°49' W 092°18'2 5.7
2017-Sep-11 09:30N 29°51' W 092°20'37 5.7
2017-Sep-11 03:03N 29°56' W 093°02'1 5.8
2017-Sep-11 02:53N 29°56' W 093°03'2 5.9
2017-Sep-11 02:30N 29°56' W 093°06'3 5.8
2017-Sep-11 01:57N 29°56' W 093°09'2 5.4
2017-Sep-11 01:30N 29°58' W 093°11'3 5.2
2017-Sep-11 01:00N 29°60' W 093°13'2 4.4
2017-Sep-11 00:30N 30°02' W 093°14'1 2.0
2017-Sep-11 00:00N 30°02' W 093°15'2 5.0
2017-Sep-10 23:30N 30°05' W 093°17'2 4.0
2017-Sep-10 23:00N 30°06' W 093°18'0 0.0
2017-Sep-10 22:30N 30°06' W 093°18'0 0.0
2017-Sep-10 22:00N 30°06' W 093°18'0 0.0
2017-Sep-10 21:30N 30°06' W 093°18'0 0.0
2017-Sep-10 21:00N 30°06' W 093°18'0 0.0
2017-Sep-10 20:30N 30°06' W 093°18'0 0.0
2017-Sep-10 20:00N 30°06' W 093°18'0 0.4
2017-Sep-10 19:30N 30°06' W 093°18'1 1.2
2017-Sep-10 19:00N 30°06' W 093°19'0 0.1
2017-Sep-10 18:30N 30°06' W 093°19'1 1.1
2017-Sep-10 18:00N 30°06' W 093°19'0 0.1
2017-Sep-10 17:30N 30°06' W 093°19'3 5.1
2017-Sep-10 17:00N 30°04' W 093°21'2 4.6
2017-Sep-10 16:30N 30°04' W 093°24'0 0.0
2017-Sep-10 16:00N 30°04' W 093°24'0 0.0
2017-Sep-10 15:30N 30°04' W 093°24'0 0.0
2017-Sep-10 15:00N 30°04' W 093°24'0 0.0
2017-Sep-10 14:00N 30°04' W 093°24'0 0.0
2017-Sep-10 12:53N 30°04' W 093°24'0 1.1
2017-Sep-10 12:30N 30°04' W 093°24'2 3.9
2017-Sep-10 11:57N 30°04' W 093°27'11 6.3
2017-Sep-10 10:17N 30°04' W 093°39'2 5.0
2017-Sep-10 09:55N 30°04' W 093°41'0 0.1
2017-Sep-10 09:30N 30°03' W 093°41'0 0.0
2017-Sep-10 08:06N 30°03' W 093°41'0 0.1
2017-Sep-10 07:58N 30°03' W 093°41'0 0.3
2017-Sep-10 07:23N 30°03' W 093°41'0 1.1
2017-Sep-10 07:00N 30°04' W 093°40'2 3.1
2017-Sep-10 06:30N 30°04' W 093°38'2 3.7
2017-Sep-10 06:00N 30°04' W 093°36'1 2.9
2017-Sep-10 05:29N 30°04' W 093°34'1 1.6
2017-Sep-10 05:00N 30°04' W 093°34'1 2.7
2017-Sep-10 04:30N 30°04' W 093°32'1 1.7
2017-Sep-10 04:00N 30°04' W 093°31'1 2.6
2017-Sep-10 03:30N 30°04' W 093°29'1 2.5
2017-Sep-10 03:00N 30°04' W 093°28'1 2.9
2017-Sep-10 02:30N 30°04' W 093°26'1 2.6
2017-Sep-10 02:00N 30°04' W 093°25'1 2.7
2017-Sep-10 01:30N 30°04' W 093°23'2 3.2
2017-Sep-10 01:00N 30°04' W 093°21'1 2.9
2017-Sep-10 00:30N 30°05' W 093°20'1 1.9
2017-Sep-10 00:00N 30°05' W 093°20'1 1.4
2017-Sep-09 23:30N 30°06' W 093°19'1 1.8
2017-Sep-09 23:00N 30°06' W 093°18'0 0.4
2017-Sep-09 22:30N 30°06' W 093°18'0 0.2
2017-Sep-09 22:00N 30°06' W 093°18'0 0.0
2017-Sep-09 21:30N 30°06' W 093°18'0 0.0
2017-Sep-09 21:00N 30°06' W 093°18'0 0.0
2017-Sep-09 20:30N 30°06' W 093°18'0 0.0
2017-Sep-09 20:00N 30°06' W 093°18'0 0.0
2017-Sep-09 19:30N 30°06' W 093°18'0 0.0
2017-Sep-09 19:00N 30°06' W 093°18'0 0.0
2017-Sep-09 18:30N 30°06' W 093°18'0 0.0
2017-Sep-09 18:00N 30°06' W 093°18'0 0.0
2017-Sep-09 17:30N 30°06' W 093°18'0 0.0
2017-Sep-09 17:00N 30°06' W 093°18'0 0.0
2017-Sep-09 16:30N 30°06' W 093°18'0 0.0
2017-Sep-09 16:00N 30°06' W 093°18'0 0.0
2017-Sep-09 15:30N 30°06' W 093°18'0 0.0
2017-Sep-09 15:00N 30°06' W 093°18'  
Track history (hours):
 
Tides and Currents Weather Stations Pressure Air Temp Water Temp Dewpoint Dewpoint Depression Visibility Wind Speed Wind Dir Waves Ship Positions

Emmanuel

Owner: Marquette Transportation Company Gulf-Inland, LLC, Jefferson, LA. More information available from US FCC via Universal Licensing System and Coast Guard Vessel Documentation Center.

Last reported at 2017-Sep-19 14:37 UTC. Time now 2017-Sep-20 23:36 UTC.
Position N 29°50' W 091°60'.

Length 205 m; draft 2.9 m.

Type: Towing. MMSI: 367379540.

Date/timePositionNaut miles runAvg speedWind from/ knotsBaromVisibWave heightAir tempDewpointWater temp
2017-Sep-19 14:37N 29°50' W 091°60'1 4.6
2017-Sep-19 14:30N 29°50' W 092°00'3 5.4
2017-Sep-19 14:00N 29°49' W 092°03'3 5.5
2017-Sep-19 13:30N 29°48' W 092°06'3 5.5
2017-Sep-19 13:00N 29°47' W 092°09'2 4.8
2017-Sep-19 12:30N 29°47' W 092°12'3 5.0
2017-Sep-19 12:00N 29°48' W 092°15'3 5.3
2017-Sep-19 11:25N 29°50' W 092°18'2 4.0
2017-Sep-19 10:55N 29°50' W 092°20'39 3.6
2017-Sep-18 23:58N 29°56' W 093°04'2 5.0
2017-Sep-18 23:30N 29°56' W 093°07'3 5.0
2017-Sep-18 23:00N 29°56' W 093°10'3 5.2
2017-Sep-18 22:30N 29°58' W 093°12'2 4.1
2017-Sep-18 22:00N 29°60' W 093°13'0 0.0
2017-Sep-18 21:30N 29°60' W 093°13'1 1.9
2017-Sep-18 21:00N 30°01' W 093°14'2 4.5
2017-Sep-18 20:30N 30°02' W 093°16'2 4.1
2017-Sep-18 20:00N 30°04' W 093°16'2 3.8
2017-Sep-18 19:30N 30°06' W 093°18'1 1.8
2017-Sep-18 19:00N 30°06' W 093°19'0 0.0
2017-Sep-18 18:30N 30°06' W 093°19'0 0.1
2017-Sep-18 18:00N 30°06' W 093°19'3 5.1
2017-Sep-18 17:30N 30°04' W 093°21'2 4.7
2017-Sep-18 17:00N 30°04' W 093°23'3 5.9
2017-Sep-18 16:30N 30°04' W 093°27'3 6.0
2017-Sep-18 16:00N 30°04' W 093°30'11 0.9
2017-Sep-18 03:10N 30°03' W 093°43'1 6.8
2017-Sep-18 03:00N 30°03' W 093°42'4 6.7
2017-Sep-18 02:28N 30°04' W 093°38'3 6.0
2017-Sep-18 02:00N 30°04' W 093°35'3 5.8
2017-Sep-18 01:30N 30°04' W 093°31'3 5.7
2017-Sep-18 01:00N 30°04' W 093°28'3 5.5
2017-Sep-18 00:30N 30°04' W 093°25'3 5.4
2017-Sep-18 00:00N 30°04' W 093°22'0 0.5
2017-Sep-17 23:30N 30°04' W 093°21'2 4.2
2017-Sep-17 23:00N 30°05' W 093°20'2 3.0
2017-Sep-17 22:30N 30°06' W 093°18'2 3.4
2017-Sep-17 22:00N 30°05' W 093°17'0 1.0
2017-Sep-17 21:30N 30°04' W 093°16'0 0.1
2017-Sep-17 21:00N 30°04' W 093°16'1 1.5
2017-Sep-17 20:30N 30°04' W 093°16'0 0.1
2017-Sep-17 20:00N 30°04' W 093°16'0 0.1
2017-Sep-17 19:30N 30°04' W 093°16'0 0.1
2017-Sep-17 19:00N 30°04' W 093°16'0 0.0
2017-Sep-17 18:30N 30°04' W 093°16'0 0.2
2017-Sep-17 18:00N 30°04' W 093°16'0 0.9
2017-Sep-17 17:30N 30°03' W 093°16'1 2.8
2017-Sep-17 17:00N 30°02' W 093°15'0 0.7
2017-Sep-17 16:30N 30°02' W 093°15'0 0.0
2017-Sep-17 16:00N 30°02' W 093°15'1 1.6
2017-Sep-17 15:30N 30°01' W 093°14'2 3.1
2017-Sep-17 15:00N 29°60' W 093°13'1 2.7
2017-Sep-17 14:30N 29°59' W 093°12'1 1.4
2017-Sep-17 14:00N 29°58' W 093°12'1 1.5
2017-Sep-17 13:30N 29°58' W 093°11'1 1.3
2017-Sep-17 13:00N 29°57' W 093°11'0 0.4
2017-Sep-17 12:30N 29°57' W 093°10'2 3.2
2017-Sep-17 12:00N 29°56' W 093°09'2 4.1
2017-Sep-17 11:29N 29°56' W 093°06'40 3.6
2017-Sep-17 00:38N 29°51' W 092°21'1 3.8
2017-Sep-17 00:25N 29°51' W 092°20'2 3.9
2017-Sep-16 23:59N 29°50' W 092°18'1 2.9
2017-Sep-16 23:30N 29°49' W 092°17'2 3.2
2017-Sep-16 23:00N 29°48' W 092°16'2 3.5
2017-Sep-16 22:30N 29°48' W 092°14'2 3.1
2017-Sep-16 22:00N 29°47' W 092°12'2 3.8
2017-Sep-16 21:30N 29°47' W 092°10'2 3.9
2017-Sep-16 21:00N 29°47' W 092°08'2 3.8
2017-Sep-16 20:30N 29°48' W 092°06'2 3.7
2017-Sep-16 20:00N 29°48' W 092°04'2 4.0
2017-Sep-16 19:30N 29°49' W 092°02'57 3.1
2017-Sep-16 01:22N 29°36' W 090°58'2 4.0
2017-Sep-16 00:59N 29°35' W 090°57'2 3.7
2017-Sep-16 00:29N 29°34' W 090°56'2 4.0
2017-Sep-16 00:00N 29°33' W 090°54'2 3.8
2017-Sep-15 23:30N 29°32' W 090°52'2 3.9
2017-Sep-15 23:00N 29°32' W 090°49'2 3.9
2017-Sep-15 22:30N 29°32' W 090°47'2 3.3
2017-Sep-15 22:00N 29°33' W 090°45'2 3.3
2017-Sep-15 21:30N 29°34' W 090°44'1 1.9
2017-Sep-15 21:00N 29°35' W 090°43'2 3.1
2017-Sep-15 20:30N 29°36' W 090°43'1 2.5
2017-Sep-15 20:00N 29°36' W 090°41'1 2.3
2017-Sep-15 19:30N 29°36' W 090°40'1 2.3
2017-Sep-15 19:00N 29°36' W 090°39'2 3.7
2017-Sep-15 18:30N 29°35' W 090°37'2 3.9
2017-Sep-15 18:00N 29°34' W 090°35'2 3.3
2017-Sep-15 17:30N 29°34' W 090°33'2 3.7
2017-Sep-15 17:00N 29°34' W 090°31'2 3.8
2017-Sep-15 16:29N 29°34' W 090°29'  
2017-Sep-11 13:02N 29°50' W 091°59'0 6.4
2017-Sep-11 12:57N 29°50' W 091°59'3 6.0
2017-Sep-11 12:29N 29°49' W 092°02'3 6.4
2017-Sep-11 12:00N 29°48' W 092°06'3 6.6
2017-Sep-11 11:29N 29°47' W 092°09'3 5.2
2017-Sep-11 11:00N 29°47' W 092°12'2 3.5
2017-Sep-11 10:30N 29°48' W 092°14'3 5.6
2017-Sep-11 09:54N 29°49' W 092°18'2 5.7
2017-Sep-11 09:30N 29°51' W 092°20'37 5.7
2017-Sep-11 03:03N 29°56' W 093°02'1 5.8
2017-Sep-11 02:53N 29°56' W 093°03'2 5.9
2017-Sep-11 02:30N 29°56' W 093°06'3 5.8
2017-Sep-11 01:57N 29°56' W 093°09'2 5.4
2017-Sep-11 01:30N 29°58' W 093°11'3 5.2
2017-Sep-11 01:00N 29°60' W 093°13'2 4.4
2017-Sep-11 00:30N 30°02' W 093°14'1 2.0
2017-Sep-11 00:00N 30°02' W 093°15'2 5.0
2017-Sep-10 23:30N 30°05' W 093°17'2 4.0
2017-Sep-10 23:00N 30°06' W 093°18'0 0.0
2017-Sep-10 22:30N 30°06' W 093°18'0 0.0
2017-Sep-10 22:00N 30°06' W 093°18'0 0.0
2017-Sep-10 21:30N 30°06' W 093°18'0 0.0
2017-Sep-10 21:00N 30°06' W 093°18'0 0.0
2017-Sep-10 20:30N 30°06' W 093°18'0 0.0
2017-Sep-10 20:00N 30°06' W 093°18'0 0.4
2017-Sep-10 19:30N 30°06' W 093°18'1 1.2
2017-Sep-10 19:00N 30°06' W 093°19'0 0.1
2017-Sep-10 18:30N 30°06' W 093°19'1 1.1
2017-Sep-10 18:00N 30°06' W 093°19'0 0.1
2017-Sep-10 17:30N 30°06' W 093°19'3 5.1
2017-Sep-10 17:00N 30°04' W 093°21'2 4.6
2017-Sep-10 16:30N 30°04' W 093°24'0 0.0
2017-Sep-10 16:00N 30°04' W 093°24'0 0.0
2017-Sep-10 15:30N 30°04' W 093°24'0 0.0
2017-Sep-10 15:00N 30°04' W 093°24'0 0.0
2017-Sep-10 14:00N 30°04' W 093°24'0 0.0
2017-Sep-10 12:53N 30°04' W 093°24'0 1.1
2017-Sep-10 12:30N 30°04' W 093°24'2 3.9
2017-Sep-10 11:57N 30°04' W 093°27'11 6.3
2017-Sep-10 10:17N 30°04' W 093°39'2 5.0
2017-Sep-10 09:55N 30°04' W 093°41'0 0.1
2017-Sep-10 09:30N 30°03' W 093°41'0 0.0
2017-Sep-10 08:06N 30°03' W 093°41'0 0.1
2017-Sep-10 07:58N 30°03' W 093°41'0 0.3
2017-Sep-10 07:23N 30°03' W 093°41'0 1.1
2017-Sep-10 07:00N 30°04' W 093°40'2 3.1
2017-Sep-10 06:30N 30°04' W 093°38'2 3.7
2017-Sep-10 06:00N 30°04' W 093°36'1 2.9
2017-Sep-10 05:29N 30°04' W 093°34'1 1.6
2017-Sep-10 05:00N 30°04' W 093°34'1 2.7
2017-Sep-10 04:30N 30°04' W 093°32'1 1.7
2017-Sep-10 04:00N 30°04' W 093°31'1 2.6
2017-Sep-10 03:30N 30°04' W 093°29'1 2.5
2017-Sep-10 03:00N 30°04' W 093°28'1 2.9
2017-Sep-10 02:30N 30°04' W 093°26'1 2.6
2017-Sep-10 02:00N 30°04' W 093°25'1 2.7
2017-Sep-10 01:30N 30°04' W 093°23'2 3.2
2017-Sep-10 01:00N 30°04' W 093°21'1 2.9
2017-Sep-10 00:30N 30°05' W 093°20'1 1.9
2017-Sep-10 00:00N 30°05' W 093°20'1 1.4
2017-Sep-09 23:30N 30°06' W 093°19'1 1.8
2017-Sep-09 23:00N 30°06' W 093°18'0 0.4
2017-Sep-09 22:30N 30°06' W 093°18'0 0.2
2017-Sep-09 22:00N 30°06' W 093°18'0 0.0
2017-Sep-09 21:30N 30°06' W 093°18'0 0.0
2017-Sep-09 21:00N 30°06' W 093°18'0 0.0
2017-Sep-09 20:30N 30°06' W 093°18'0 0.0
2017-Sep-09 20:00N 30°06' W 093°18'0 0.0
2017-Sep-09 19:30N 30°06' W 093°18'0 0.0
2017-Sep-09 19:00N 30°06' W 093°18'0 0.0
2017-Sep-09 18:30N 30°06' W 093°18'0 0.0
2017-Sep-09 18:00N 30°06' W 093°18'0 0.0
2017-Sep-09 17:30N 30°06' W 093°18'0 0.0
2017-Sep-09 17:00N 30°06' W 093°18'0 0.0
2017-Sep-09 16:30N 30°06' W 093°18'0 0.0
2017-Sep-09 16:00N 30°06' W 093°18'0 0.0
2017-Sep-09 15:30N 30°06' W 093°18'0 0.0
2017-Sep-09 15:00N 30°06' W 093°18'  

Dump ship's entire track history